createdAt,value
2023-02-28T00:02:45.338Z,0
2023-02-28T00:06:10.569Z,0
2023-02-28T00:09:35.664Z,0
2023-02-28T00:13:00.862Z,0
2023-02-28T00:16:26.025Z,0
2023-02-28T00:19:51.160Z,0
2023-02-28T00:23:16.368Z,0
2023-02-28T00:26:41.572Z,0
2023-02-28T00:30:06.769Z,0
2023-02-28T00:33:31.892Z,0
2023-02-28T00:36:57.023Z,0
2023-02-28T00:40:22.207Z,0
2023-02-28T00:43:47.362Z,0
2023-02-28T00:47:12.549Z,0
2023-02-28T00:50:37.713Z,0
2023-02-28T00:54:02.843Z,0
2023-02-28T00:57:28.014Z,0
2023-02-28T01:00:53.179Z,0
2023-02-28T01:04:18.427Z,0
2023-02-28T01:07:43.503Z,0
2023-02-28T01:11:08.665Z,0
2023-02-28T01:14:33.838Z,0
2023-02-28T01:17:58.988Z,0
2023-02-28T01:21:24.192Z,0
2023-02-28T01:24:49.323Z,0
2023-02-28T01:28:14.482Z,0
2023-02-28T01:31:39.650Z,0
2023-02-28T01:35:04.803Z,0
2023-02-28T01:38:29.968Z,0
2023-02-28T01:41:55.123Z,0
2023-02-28T01:45:20.274Z,0
2023-02-28T01:48:45.424Z,0
2023-02-28T01:52:10.635Z,0
2023-02-28T01:55:35.808Z,0
2023-02-28T01:59:00.954Z,0
2023-02-28T02:02:26.167Z,0
2023-02-28T02:05:51.297Z,0
2023-02-28T02:09:16.457Z,0
2023-02-28T02:12:41.636Z,0
2023-02-28T02:16:06.792Z,0
2023-02-28T02:19:31.934Z,0
2023-02-28T02:22:57.110Z,0
2023-02-28T02:26:22.260Z,0
2023-02-28T02:29:47.449Z,0
2023-02-28T02:33:12.598Z,0
2023-02-28T02:36:37.763Z,0
2023-02-28T02:40:02.945Z,0
2023-02-28T02:43:28.104Z,0
2023-02-28T02:46:53.328Z,0
2023-02-28T02:50:18.399Z,0
2023-02-28T02:53:43.537Z,0
2023-02-28T02:57:08.681Z,0
2023-02-28T03:00:33.863Z,0
2023-02-28T03:03:59.131Z,0
2023-02-28T03:07:24.168Z,0
2023-02-28T03:10:49.317Z,0
2023-02-28T03:14:14.462Z,0
2023-02-28T03:17:39.643Z,0
2023-02-28T03:21:04.846Z,0
2023-02-28T03:24:29.989Z,0
2023-02-28T03:27:55.138Z,0
2023-02-28T03:31:20.379Z,0
2023-02-28T03:34:45.460Z,0
2023-02-28T03:38:10.721Z,0
2023-02-28T03:41:35.836Z,0
2023-02-28T03:45:01.009Z,0
2023-02-28T03:48:26.185Z,0
2023-02-28T03:51:51.335Z,0
2023-02-28T03:55:16.507Z,0
2023-02-28T03:58:41.655Z,0
2023-02-28T04:02:06.916Z,0
2023-02-28T04:05:32.016Z,0
2023-02-28T04:08:57.189Z,0
2023-02-28T04:12:22.366Z,0
2023-02-28T04:15:47.528Z,0
2023-02-28T04:19:12.647Z,0
2023-02-28T04:22:37.821Z,0
2023-02-28T04:26:02.985Z,0
2023-02-28T04:29:28.172Z,0
2023-02-28T04:32:53.349Z,0
2023-02-28T04:36:18.728Z,0
2023-02-28T04:39:43.866Z,0
2023-02-28T04:43:09.724Z,0
2023-02-28T04:46:34.923Z,0
2023-02-28T04:50:00.012Z,0
2023-02-28T04:53:25.177Z,0
2023-02-28T04:56:50.329Z,0
2023-02-28T05:00:15.547Z,0
2023-02-28T05:03:40.703Z,0
2023-02-28T05:07:05.912Z,0
2023-02-28T05:10:31.080Z,0
2023-02-28T05:13:56.258Z,0
2023-02-28T05:17:21.391Z,0
2023-02-28T05:20:46.589Z,0
2023-02-28T05:24:11.735Z,0
2023-02-28T05:27:36.924Z,0
2023-02-28T05:31:02.103Z,0
2023-02-28T05:34:27.263Z,0
2023-02-28T05:37:52.464Z,0
2023-02-28T05:41:17.608Z,0
2023-02-28T05:44:42.782Z,0
2023-02-28T05:48:07.941Z,0
2023-02-28T05:51:33.108Z,0
2023-02-28T05:54:58.293Z,0
2023-02-28T05:58:23.426Z,0
2023-02-28T06:01:48.619Z,0
2023-02-28T06:05:13.809Z,0
2023-02-28T06:08:38.964Z,0
2023-02-28T06:12:04.162Z,6
2023-02-28T06:15:29.285Z,6
2023-02-28T06:18:54.447Z,6
2023-02-28T06:22:19.634Z,6
2023-02-28T06:25:44.816Z,11
2023-02-28T06:29:10.004Z,11
2023-02-28T06:32:35.153Z,11
2023-02-28T06:36:00.380Z,11
2023-02-28T06:39:25.469Z,17
2023-02-28T06:42:50.666Z,23
2023-02-28T06:46:15.905Z,23
2023-02-28T06:49:41.005Z,28
2023-02-28T06:53:06.206Z,28
2023-02-28T06:56:31.392Z,34
2023-02-28T06:59:56.632Z,39
2023-02-28T07:03:21.855Z,45
2023-02-28T07:06:47.017Z,56
2023-02-28T07:10:12.192Z,84
2023-02-28T07:13:37.345Z,90
2023-02-28T07:17:02.566Z,73
2023-02-28T07:20:27.730Z,73
2023-02-28T07:23:52.903Z,79
2023-02-28T07:27:18.111Z,79
2023-02-28T07:30:43.257Z,79
2023-02-28T07:34:08.439Z,84
2023-02-28T07:37:33.667Z,84
2023-02-28T07:40:58.845Z,90
2023-02-28T07:44:24.063Z,96
2023-02-28T07:47:49.234Z,101
2023-02-28T07:51:14.425Z,101
2023-02-28T07:54:39.708Z,96
2023-02-28T07:58:04.928Z,118
2023-02-28T08:01:30.450Z,124
2023-02-28T08:04:55.254Z,129
2023-02-28T08:08:20.437Z,141
2023-02-28T08:11:45.613Z,141
2023-02-28T08:15:10.812Z,152
2023-02-28T08:18:35.970Z,163
2023-02-28T08:22:01.177Z,169
2023-02-28T08:25:26.351Z,180
2023-02-28T08:28:51.605Z,174
2023-02-28T08:32:28.822Z,174
2023-02-28T08:35:41.913Z,163
2023-02-28T08:39:07.065Z,158
2023-02-28T08:42:32.272Z,158
2023-02-28T08:45:57.660Z,158
2023-02-28T08:49:22.623Z,158
2023-02-28T08:52:47.796Z,152
2023-02-28T08:56:12.969Z,62
2023-02-28T08:59:38.176Z,152
2023-02-28T09:03:03.389Z,152
2023-02-28T09:06:29.080Z,152
2023-02-28T09:09:53.810Z,152
2023-02-28T09:13:18.983Z,152
2023-02-28T09:16:44.263Z,146
2023-02-28T09:20:09.385Z,152
2023-02-28T09:23:34.572Z,158
2023-02-28T09:27:04.757Z,174
2023-02-28T09:30:25.109Z,174
2023-02-28T09:33:50.141Z,174
2023-02-28T09:37:15.318Z,180
2023-02-28T09:40:40.502Z,186
2023-02-28T09:44:05.686Z,180
2023-02-28T09:47:30.866Z,84
2023-02-28T09:50:56.054Z,73
2023-02-28T09:54:21.236Z,90
2023-02-28T09:57:46.366Z,191
2023-02-28T10:01:11.622Z,73
2023-02-28T10:04:36.809Z,146
2023-02-28T10:08:01.879Z,107
2023-02-28T10:11:27.073Z,90
2023-02-28T10:14:52.461Z,191
2023-02-28T10:18:17.596Z,208
2023-02-28T10:21:42.799Z,203
2023-02-28T10:25:08.204Z,214
2023-02-28T10:28:33.205Z,180
2023-02-28T10:31:58.314Z,214
2023-02-28T10:35:23.462Z,203
2023-02-28T10:38:48.630Z,208
2023-02-28T10:42:13.805Z,197
2023-02-28T10:45:39.017Z,203
2023-02-28T10:49:04.130Z,208
2023-02-28T10:52:29.301Z,219
2023-02-28T10:55:54.448Z,231
2023-02-28T10:59:19.615Z,248
2023-02-28T11:02:44.829Z,264
2023-02-28T11:06:09.997Z,293
2023-02-28T11:09:35.127Z,304
2023-02-28T11:13:01.105Z,326
2023-02-28T11:16:25.474Z,343
2023-02-28T11:19:50.620Z,349
2023-02-28T11:23:15.742Z,360
2023-02-28T11:26:40.926Z,360
2023-02-28T11:30:06.111Z,366
2023-02-28T11:33:31.271Z,366
2023-02-28T11:36:56.462Z,366
2023-02-28T11:40:21.605Z,366
2023-02-28T11:43:46.792Z,366
2023-02-28T11:47:11.937Z,354
2023-02-28T11:50:37.133Z,349
2023-02-28T11:54:02.328Z,343
2023-02-28T11:57:27.475Z,338
2023-02-28T12:00:52.660Z,332
2023-02-28T12:04:17.827Z,326
2023-02-28T12:07:43.002Z,321
2023-02-28T12:11:08.249Z,309
2023-02-28T12:14:33.578Z,298
2023-02-28T12:17:58.780Z,287
2023-02-28T12:21:24.082Z,281
2023-02-28T12:24:49.252Z,270
2023-02-28T12:28:14.472Z,259
2023-02-28T12:31:39.658Z,253
2023-02-28T12:35:04.850Z,242
2023-02-28T12:38:30.007Z,231
2023-02-28T12:41:55.214Z,219
2023-02-28T12:45:20.454Z,214
2023-02-28T12:48:45.620Z,208
2023-02-28T12:52:10.798Z,208
2023-02-28T12:55:36.003Z,197
2023-02-28T12:59:01.167Z,191
2023-02-28T13:02:26.387Z,191
2023-02-28T13:05:51.498Z,174
2023-02-28T13:09:16.702Z,169
2023-02-28T13:12:41.815Z,163
2023-02-28T13:16:07.112Z,163
2023-02-28T13:19:32.428Z,152
2023-02-28T13:22:57.737Z,146
2023-02-28T13:26:23.074Z,141
2023-02-28T13:29:48.408Z,141
2023-02-28T13:33:13.807Z,135
2023-02-28T13:36:39.196Z,124
2023-02-28T13:40:04.550Z,118
2023-02-28T13:43:36.030Z,113
2023-02-28T13:46:55.246Z,113
2023-02-28T13:50:20.556Z,113
2023-02-28T13:53:48.235Z,107
2023-02-28T13:57:11.184Z,107
2023-02-28T14:00:36.858Z,107
2023-02-28T14:04:02.133Z,101
2023-02-28T14:07:27.521Z,101
2023-02-28T14:10:53.578Z,101
2023-02-28T14:14:19.279Z,101
2023-02-28T14:17:44.650Z,101
2023-02-28T14:21:09.924Z,101
2023-02-28T14:24:35.270Z,101
2023-02-28T14:28:00.633Z,96
2023-02-28T14:31:25.996Z,96
2023-02-28T15:06:55.910Z,34
2023-02-28T15:10:21.187Z,68
2023-02-28T15:13:46.533Z,56
2023-02-28T15:17:11.839Z,51
2023-02-28T15:20:37.149Z,51
2023-02-28T15:24:02.525Z,45
2023-02-28T15:27:27.932Z,39
2023-02-28T15:30:53.293Z,39
2023-02-28T15:34:18.568Z,39
2023-02-28T15:37:43.891Z,34
2023-02-28T15:41:09.218Z,34
2023-02-28T15:44:36.331Z,34
2023-02-28T15:48:08.707Z,28
2023-02-28T15:51:25.349Z,28
2023-02-28T15:54:50.632Z,28
2023-02-28T15:58:15.990Z,28
2023-02-28T16:01:41.394Z,23
2023-02-28T16:05:07.408Z,23
2023-02-28T16:08:32.720Z,23
2023-02-28T16:11:58.026Z,23
2023-02-28T16:15:23.322Z,17
2023-02-28T16:18:48.736Z,17
2023-02-28T16:22:14.816Z,17
2023-02-28T16:25:40.115Z,17
2023-02-28T16:29:05.453Z,17
2023-02-28T16:32:30.838Z,11
2023-02-28T16:35:56.144Z,11
2023-02-28T16:39:21.502Z,11
2023-02-28T16:42:47.159Z,6
2023-02-28T16:46:12.547Z,6
2023-02-28T16:49:38.721Z,0
2023-02-28T16:53:03.990Z,0
2023-02-28T16:56:29.299Z,0
2023-02-28T16:59:54.592Z,0
2023-02-28T17:03:27.137Z,0
2023-02-28T17:06:45.163Z,0
2023-02-28T17:10:10.436Z,0
2023-02-28T17:13:35.739Z,0
2023-02-28T17:17:01.025Z,0
2023-02-28T17:20:26.343Z,0
2023-02-28T17:23:51.656Z,0
2023-02-28T17:27:16.902Z,0
2023-02-28T17:30:42.214Z,0
2023-02-28T17:34:07.509Z,0
2023-02-28T17:37:32.880Z,0
2023-02-28T17:40:58.226Z,0
2023-02-28T17:44:23.388Z,0
2023-02-28T17:47:48.647Z,0
2023-02-28T17:51:13.972Z,0
2023-02-28T17:54:39.281Z,0
2023-02-28T17:58:04.614Z,0
2023-02-28T18:01:29.992Z,0
2023-02-28T18:04:55.366Z,0
2023-02-28T18:08:20.721Z,0
2023-02-28T18:11:46.087Z,0
2023-02-28T18:15:11.482Z,0
2023-02-28T18:18:36.822Z,0
2023-02-28T18:22:02.209Z,0
2023-02-28T18:25:27.573Z,0
2023-02-28T18:28:52.986Z,0
2023-02-28T18:32:18.470Z,0
2023-02-28T18:35:43.815Z,0
2023-02-28T18:39:09.031Z,0
2023-02-28T18:42:34.347Z,0
2023-02-28T18:45:59.660Z,0
2023-02-28T18:49:25.027Z,0
2023-02-28T18:52:50.288Z,0
2023-02-28T18:56:15.598Z,0
2023-02-28T18:59:40.908Z,0
2023-02-28T19:03:06.241Z,0
2023-02-28T19:06:31.850Z,0
2023-02-28T19:09:56.873Z,0
2023-02-28T19:13:22.179Z,0
2023-02-28T19:16:47.518Z,0
2023-02-28T19:20:12.818Z,0
2023-02-28T19:23:38.156Z,0
2023-02-28T19:27:03.444Z,0
2023-02-28T19:30:28.736Z,0
2023-02-28T19:33:54.091Z,0
2023-02-28T19:37:19.358Z,0
2023-02-28T19:40:44.710Z,0
2023-02-28T19:44:09.903Z,0
2023-02-28T19:47:35.188Z,0
2023-02-28T19:51:00.575Z,0
2023-02-28T19:54:25.790Z,0
2023-02-28T19:57:51.138Z,0
2023-02-28T20:01:16.570Z,0
2023-02-28T20:04:41.755Z,0
2023-02-28T20:08:07.061Z,0
2023-02-28T20:11:32.405Z,0
2023-02-28T20:14:57.751Z,0
2023-02-28T20:18:23.020Z,0
2023-02-28T20:21:49.346Z,0
2023-02-28T20:25:14.547Z,0
2023-02-28T20:28:39.872Z,0
2023-02-28T20:32:05.284Z,0
2023-02-28T20:35:30.538Z,0
2023-02-28T20:38:55.841Z,0
2023-02-28T20:42:21.128Z,0
2023-02-28T20:45:46.457Z,0
2023-02-28T20:49:11.783Z,0
2023-02-28T20:52:37.074Z,0
2023-02-28T20:56:02.372Z,0
2023-02-28T20:59:27.620Z,0
2023-02-28T21:02:52.809Z,0
2023-02-28T21:06:17.980Z,0
2023-02-28T21:09:43.127Z,0
2023-02-28T21:13:08.266Z,0
2023-02-28T21:16:34.505Z,0
2023-02-28T21:19:58.613Z,0
2023-02-28T21:23:23.848Z,0
2023-02-28T21:26:48.980Z,0
2023-02-28T21:30:14.142Z,0
2023-02-28T21:33:39.386Z,0
2023-02-28T21:37:07.282Z,0
2023-02-28T21:40:30.321Z,0
2023-02-28T21:43:55.460Z,0
2023-02-28T21:47:20.616Z,0
2023-02-28T21:50:45.820Z,0
2023-02-28T21:54:11.002Z,0
2023-02-28T21:57:36.224Z,0
2023-02-28T22:01:01.290Z,0
2023-02-28T22:04:26.433Z,0
2023-02-28T22:07:51.623Z,0
2023-02-28T22:11:16.774Z,0
2023-02-28T22:14:41.958Z,0
2023-02-28T22:18:07.075Z,0
2023-02-28T22:21:32.302Z,0
2023-02-28T22:24:57.466Z,0
2023-02-28T22:28:22.644Z,0
2023-02-28T22:31:48.088Z,0
2023-02-28T22:35:13.001Z,0
2023-02-28T22:38:38.156Z,0
2023-02-28T22:42:03.323Z,0
2023-02-28T22:45:28.488Z,0
2023-02-28T22:48:53.669Z,0
2023-02-28T22:52:18.812Z,0
2023-02-28T22:55:43.959Z,0
2023-02-28T22:59:09.130Z,0
2023-02-28T23:02:34.277Z,0
2023-02-28T23:05:59.478Z,0
2023-02-28T23:09:24.642Z,0
2023-02-28T23:12:49.877Z,0
2023-02-28T23:16:15.024Z,0
2023-02-28T23:19:40.157Z,0
2023-02-28T23:23:05.345Z,0
2023-02-28T23:26:30.731Z,0
2023-02-28T23:29:55.619Z,0
2023-02-28T23:33:20.808Z,0
2023-02-28T23:36:46.071Z,0
2023-02-28T23:40:11.188Z,0
2023-02-28T23:43:36.338Z,0
2023-02-28T23:47:01.488Z,0
2023-02-28T23:50:26.658Z,0
2023-02-28T23:53:51.839Z,0
2023-02-28T23:57:17.046Z,0
